Pagrindinis puslapis
METAR-TAF:

METAR-TAF

Oro uostai :

Igdyras, Turkija

platuma: 39-58-36N, ilguma: 43-52-36E, Aukštis: 945 m

Dabartinis oras

Ataskaita buvo paskelbta 1 valandą ir 54 minutes, ne 12:50 UTC
Vėjas 8 kt iš Rytų/Pietryčių, svyruoja nuo Rytų ir Pietų/Pietryčių
Temperatūra 26°C
Drėgmė 26%
Slėgis 1013 hPa
Matomumas 10 km arba daugiau
Mažai debesys ne aukštis 8000 ft

METAR: LTCT 121250Z 12008KT 090V150 9999 FEW080 26/05 Q1013

Laikas: 17:44 (14:44 UTC)

Prognozė

Ataskaita buvo paskelbta 1 valandą ir 4 minutes, ne 13:40 UTC
Prognozė galioja nuo 12 metu 15 UTC su 12 metu 24 UTC
Vėjas 8 kt iš Rytų/Pietryčių
Matomumas 10 km arba daugiau
Mažai debesys ne aukštis 4000 ft
Su prošvaistėmis ne aukštis 8000 ft

TAF: LTCT 121340Z 1215/1224 12008KT 9999 FEW040 BKN080

Orai ataskaitas ir orų prognozės (METAR, TAF).

turimą stotys yra geltonos ir raudonos taškus žemėlapyje.

Perkelti pele per norėdami pamatyti stoties vardą.

Tada spustelėkite, norėdami matyti oro stebėjimo ir prognozės.

Norėdami pakeisti žemėlapį: spustelėkite ant žalios mygtukų su juodo kryžiaus žemyn,; žalią mygtuką su brūkšneliu, jei norite nutolinti; arba žalių rodyklių gretimoms žemėlapius.


METAR-TAF: